Mount Gretna Heights, Pennsylvania
Current Conditions -  °F | °C
As of 7:53 PM on Wednesday 26 Nov 2014 (Local Time) from KLNS Reporting Station
Overcast Overcast  
Wind Chill: 27°   Ceiling: 4600
Heat Index: 34°   Visibility: 10mi
Dew Point: 31°   Wind: 8mph
Humidity: 89%   Direction: 340°NNW
Pressure: 29.91"   Gusts: NA
Location:  40.2477°N, 76.4509°W
Report Text: KLNS 270053Z 34007KT 10SM OVC046 01/M01 A2991 RMK AO2 SNE38 SLP133 P0000 T00111006
Loading
Personal Weather Stations






























Interactive Weather Map New forecast layout! Learn more

10-Day Weather Forecast

Advertisements
Track Severe Weather on mobile